Latest Weather Observations for Sydney Airport

IDN60901

Issued at 9:55 am EST Thursday 2 October 2014 (issued every 10 minutes, with the page automatically refreshed every 10 minutes)

About weather observations | Map of Sydney area stations | Latest observations for Sydney area | Other Formats
Station Details ID: 066037 Name: SYDNEY AIRPORT AMO Lat: -33.95 Lon: 151.17 Height: 6.0 m
Data from the previous 72 hours. | See also: Recent months at Sydney Airport
Date/Time
EST
Tmp

°C
App
Tmp
°C
Dew
Point
°C
Rel
Hum
%
Delta-T

°C
Wind Press
QNH
hPa
Press
MSL
hPa
Rain
since
9 am
mm
Dir
 
Spd
km/h
Gust
km/h
Spd
kts
Gust
kts
02/09:30am 19.1 13.5 3.5 35 7.3 NW 22 32 12 17 1021.6 1021.6 0.0
02/09:00am 17.6 13.1 4.2 41 6.3 NW 17 26 9 14 1022.0 1022.0 0.0
02/08:30am 16.9 12.7 4.0 42 6.0 NW 15 19 8 10 1022.3 1022.3 0.0
02/08:00am 14.6 10.4 3.8 48 4.9 NW 15 19 8 10 1022.4 1022.4 0.0
02/07:30am 13.5 9.3 3.7 51 4.4 WNW 15 19 8 10 1022.5 1022.5 0.0
02/07:00am 13.2 9.8 3.9 53 4.2 NW 11 15 6 8 1022.5 1022.5 0.0
02/06:30am 11.9 8.1 4.1 59 3.5 NW 13 17 7 9 1022.4 1022.4 0.0
02/06:00am 10.7 7.0 4.2 64 2.9 NW 13 17 7 9 1022.3 1022.3 0.0
02/05:30am 10.8 7.0 4.0 63 3.0 NW 13 17 7 9 1022.2 1022.2 0.0
02/05:00am 10.5 6.3 3.9 63 2.9 NW 15 17 8 9 1022.1 1022.1 0.0
02/04:30am 10.8 7.0 3.7 61 3.1 NNW 13 15 7 8 1021.9 1021.9 0.0
02/04:00am 10.8 7.4 4.0 63 3.0 NNW 11 15 6 8 1021.7 1021.7 0.0
02/03:30am 10.6 6.4 4.0 63 2.9 WNW 15 17 8 9 1021.7 1021.7 0.0
02/03:00am 11.1 7.3 3.9 61 3.2 NW 13 15 7 8 1021.5 1021.5 0.0
02/02:30am 11.2 7.4 3.7 60 3.3 NNW 13 15 7 8 1021.7 1021.7 0.0
02/02:00am 11.6 7.9 4.2 60 3.3 NW 13 15 7 8 1022.1 1022.1 0.0
02/01:30am 12.1 7.6 4.1 58 3.6 W 17 20 9 11 1022.2 1022.2 0.0
02/01:00am 12.4 7.9 4.4 58 3.6 W 17 19 9 10 1022.6 1022.6 0.0
02/12:30am 12.5 8.1 4.6 58 3.6 W 17 19 9 10 1022.9 1022.9 0.0
02/12:00am 12.8 8.8 4.7 58 3.7 W 15 19 8 10 1023.0 1023.0 0.0
 
Date/Time
EST
Tmp

°C
App
Tmp
°C
Dew
Point
°C
Rel
Hum
%
Delta-T

°C
Wind Press
QNH
hPa
Press
MSL
hPa
Rain
since
9 am
mm
Dir
 
Spd
km/h
Gust
km/h
Spd
kts
Gust
kts
01/11:30pm 13.0 8.6 4.7 57 3.8 W 17 19 9 10 1023.0 1023.0 0.0
01/11:00pm 13.4 8.9 4.4 54 4.1 W 17 19 9 10 1022.8 1022.8 0.0
01/10:30pm 13.8 9.7 4.1 52 4.4 WSW 15 19 8 10 1023.2 1023.2 0.0
01/10:00pm 14.1 9.7 4.8 53 4.3 WSW 17 19 9 10 1023.1 1023.1 0.0
01/09:30pm 15.2 10.3 5.2 51 4.7 S 20 33 11 18 1022.9 1022.9 0.0
01/09:00pm 15.9 11.4 6.2 52 4.7 S 19 28 10 15 1022.5 1022.5 0.0
01/08:30pm 16.0 10.7 5.0 48 5.2 S 22 30 12 16 1022.3 1022.3 0.0
01/08:00pm 16.1 10.4 5.1 48 5.2 S 24 30 13 16 1021.9 1021.9 0.0
01/07:30pm 16.0 9.8 4.1 45 5.5 SSE 26 32 14 17 1021.6 1021.6 0.0
01/07:00pm 15.9 9.8 4.6 47 5.3 S 26 32 14 17 1021.2 1021.2 0.0
01/06:30pm 16.0 9.7 3.8 44 5.6 SSE 26 32 14 17 1020.7 1020.7 0.0
01/06:00pm 16.3 9.0 2.2 38 6.3 S 30 37 16 20 1020.5 1020.5 0.0
01/05:30pm 16.3 9.2 3.4 42 5.9 S 30 37 16 20 1020.4 1020.4 0.0
01/05:00pm 16.8 9.2 2.7 39 6.4 S 32 37 17 20 1020.0 1020.0 0.0
01/04:30pm 17.0 10.2 3.3 40 6.3 S 28 35 15 19 1019.6 1019.6 0.0
01/04:00pm 16.8 9.3 3.6 41 6.1 SSE 32 41 17 22 1019.0 1019.0 0.0
01/03:30pm 17.3 9.8 3.7 40 6.3 S 32 39 17 21 1018.7 1018.7 0.0
01/03:00pm 17.2 9.3 2.4 37 6.7 S 33 41 18 22 1018.5 1018.5 0.0
01/02:30pm 17.3 9.7 3.1 38 6.5 S 32 43 17 23 1018.5 1018.5 0.0
01/02:00pm 18.2 10.6 3.0 36 7.0 SSE 32 41 17 22 1018.5 1018.5 0.0
01/01:30pm 18.1 9.7 -2.2 25 8.4 S 32 37 17 20 1018.3 1018.3 0.0
01/01:00pm 18.2 10.1 0.0 29 7.9 SSE 32 37 17 20 1018.3 1018.3 0.0
01/12:30pm 17.5 9.6 0.9 32 7.3 S 32 44 17 24 1018.4 1018.4 0.0
01/12:00pm 17.6 9.2 -1.2 28 7.9 S 33 41 18 22 1018.4 1018.4 0.0
01/11:30am 17.5 9.1 -1.4 27 7.9 S 33 43 18 23 1018.3 1018.3 0.0
01/11:00am 17.4 9.0 -0.8 29 7.7 S 33 39 18 21 1018.3 1018.3 0.0
01/10:30am 17.6 9.4 0.3 31 7.5 S 33 44 18 24 1018.2 1018.2 0.0
01/10:00am 17.8 9.5 -1.6 26 8.1 SW 32 41 17 22 1018.2 1018.2 0.0
01/09:30am 17.1 8.5 -4.3 23 8.4 WSW 32 50 17 27 1018.0 1018.0 0.0
01/09:00am 17.0 7.6 -3.2 25 8.1 WSW 37 56 20 30 1017.8 1017.8 0.0
01/08:30am 16.3 7.2 -7.8 18 8.7 WSW 33 52 18 28 1017.7 1017.7 0.0
01/08:00am 16.2 6.8 -2.7 27 7.6 WSW 37 56 20 30 1017.1 1017.1 0.0
01/07:30am 15.0 6.6 -2.2 30 6.9 SW 32 39 17 21 1017.0 1017.0 0.0
01/07:00am 15.1 6.7 -1.2 32 6.7 SW 33 41 18 22 1016.4 1016.4 0.0
01/06:56am 15.1 6.6 0.6 37 6.2 SW 35 41 19 22 1016.3 1016.3 0.0
01/06:30am 15.3 5.5 -2.8 28 7.2 WSW 39 57 21 31 1015.7 1015.7 0.0
01/06:00am 15.4 6.1 -1.8 30 7.0 SW 37 56 20 30 1015.2 1015.2 0.0
01/05:51am 15.6 7.2 -2.2 29 7.2 WSW 32 54 17 29 1015.1 1015.1 0.0
01/05:30am 16.1 6.3 -3.3 26 7.7 SW 39 52 21 28 1014.5 1014.5 0.0
01/05:04am 17.3 9.2 -0.5 30 7.6 SW 32 59 17 32 1013.5 1013.5 0.0
01/05:00am 17.3 9.3 -2.1 26 8.0 WSW 30 41 16 22 1013.4 1013.4 0.0
01/04:30am 17.8 10.7 3.4 38 6.7 SW 30 39 16 21 1012.5 1012.5 0.0
01/04:00am 18.2 9.5 4.0 39 6.7 SW 39 48 21 26 1012.1 1012.1 0.0
01/03:54am 18.2 9.8 5.4 43 6.2 SW 39 57 21 31 1012.0 1012.0 0.0
01/03:30am 18.7 8.2 5.4 41 6.5 SW 50 59 27 32 1011.3 1011.3 0.0
01/03:00am 19.7 9.5 5.2 38 7.1 SW 48 61 26 33 1010.6 1010.6 0.0
01/02:30am 21.0 10.8 5.2 35 7.8 SW 48 63 26 34 1009.8 1009.8 0.0
01/02:14am 23.2 14.3 0.9 23 10.3 WSW 37 54 20 29 1009.0 1009.0 0.0
01/02:00am 23.5 15.9 0.4 21 10.6 WSW 30 35 16 19 1008.5 1008.5 0.0
01/01:57am 23.8 16.5 -0.1 20 10.9 WSW 28 35 15 19 1008.5 1008.5 0.0
01/01:30am 22.5 19.4 1.4 25 9.8 WNW 7 15 4 8 1007.6 1007.6 0.0
01/01:00am 23.2 20.0 2.8 26 9.8 SW 9 13 5 7 1007.1 1007.1 0.0
01/12:30am 25.2 20.0 0.2 19 11.6 NW 17 20 9 11 1007.0 1007.0 0.0
01/12:00am 25.6 20.2 1.1 20 11.6 NW 19 20 10 11 1006.9 1006.9 0.0
 
Date/Time
EST
Tmp

°C
App
Tmp
°C
Dew
Point
°C
Rel
Hum
%
Delta-T

°C
Wind Press
QNH
hPa
Press
MSL
hPa
Rain
since
9 am
mm
Dir
 
Spd
km/h
Gust
km/h
Spd
kts
Gust
kts
30/11:30pm 25.9 22.6 2.4 21 11.4 WSW 9 9 5 5 1007.2 1007.2 0.0
30/11:00pm 25.9 21.4 2.4 21 11.4 NNW 15 19 8 10 1007.1 1007.1 0.0
30/10:30pm 25.9 22.2 2.4 21 11.4 NNW 11 15 6 8 1007.5 1007.5 0.0
30/10:00pm 25.8 24.1 3.9 24 10.9 N 2 7 1 4 1007.4 1007.4 0.0
30/09:30pm 27.2 23.4 1.8 19 12.3 N 11 15 6 8 1007.1 1007.1 0.0
30/09:00pm 28.3 22.8 0.8 17 13.2 NNW 19 26 10 14 1007.1 1007.1 0.0
30/08:30pm 28.5 23.0 0.8 16 13.3 NW 19 24 10 13 1007.2 1007.2 0.0
30/08:00pm 28.9 22.8 0.5 16 13.6 NNW 22 33 12 18 1007.0 1007.0 0.0
30/07:30pm 29.7 23.1 -0.5 14 14.3 NW 24 30 13 16 1007.1 1007.1 0.0
30/07:00pm 29.6 22.8 1.0 16 13.9 NW 26 33 14 18 1007.1 1007.1 0.0
30/06:30pm 30.0 23.1 0.3 14 14.2 NW 26 30 14 16 1007.0 1007.0 0.0
30/06:00pm 31.1 24.4 -1.4 12 15.3 NW 24 33 13 18 1006.5 1006.5 0.0
30/05:39pm 31.8 24.3 -1.3 12 15.6 WNW 28 50 15 27 1006.6 1006.6 0.0
30/05:30pm 32.1 25.3 -1.9 11 15.9 WNW 24 32 13 17 1006.5 1006.5 0.0
30/05:00pm 32.9 23.5 -2.6 10 16.6 WNW 37 50 20 27 1006.6 1006.6 0.0
30/04:30pm 33.4 23.5 -3.7 9 17.0 WNW 39 57 21 31 1006.5 1006.5 0.0
30/04:00pm 33.1 23.2 -3.6 9 16.9 NW 39 57 21 31 1006.6 1006.6 0.0
30/03:30pm 33.9 24.2 -2.1 10 17.0 NW 39 59 21 32 1006.6 1006.6 0.0
30/03:06pm 33.5 25.4 -0.3 11 16.4 NW 32 50 17 27 1006.6 1006.6 0.0
30/03:00pm 33.4 25.1 -0.6 11 16.5 NNW 33 41 18 22 1006.5 1006.5 0.0
30/02:30pm 33.2 23.8 -0.3 12 16.3 NW 39 48 21 26 1007.3 1007.3 0.0
30/02:00pm 32.7 25.8 2.7 15 15.3 N 28 46 15 25 1007.8 1007.8 0.0
30/01:30pm 33.4 26.3 1.5 13 16.0 NNE 28 46 15 25 1008.1 1008.1 0.0
30/01:14pm 34.2 26.4 1.9 13 16.4 NNE 32 46 17 25 1008.2 1008.2 0.0
30/01:06pm 33.4 24.2 1.1 13 16.1 N 39 57 21 31 1008.5 1008.5 0.0
30/01:00pm 33.7 24.6 1.9 13 16.1 N 39 52 21 28 1008.6 1008.6 0.0
30/12:51pm 32.8 24.6 2.9 15 15.3 N 35 52 19 28 1008.8 1008.8 0.0
30/12:30pm 30.6 24.7 3.9 18 13.7 N 24 32 13 17 1009.5 1009.5 0.0
30/12:00pm 29.3 24.1 5.7 22 12.4 N 22 32 12 17 1010.2 1010.2 0.0
30/11:30am 28.6 22.7 5.6 23 12.0 N 26 33 14 18 1010.7 1010.7 0.0
30/11:00am 28.4 23.1 4.9 22 12.1 N 22 30 12 16 1011.4 1011.4 0.0
30/10:30am 29.0 21.7 4.7 21 12.5 N 32 37 17 20 1012.0 1012.0 0.0
30/10:00am 28.4 23.3 7.6 27 11.2 N 24 32 13 17 1012.4 1012.4 0.0
30/09:30am 27.2 22.4 7.3 28 10.6 N 22 30 12 16 1012.9 1012.9 0.0
30/09:00am 25.3 22.2 10.4 39 8.3 N 17 20 9 11 1013.4 1013.4 0.0
30/08:30am 24.2 22.4 10.7 42 7.5 NNW 11 15 6 8 1013.5 1013.5 0.0
30/08:00am 21.0 19.5 11.9 56 5.1 WNW 11 15 6 8 1013.5 1013.5 0.0
30/07:30am 19.7 18.7 12.2 62 4.2 NW 9 13 5 7 1013.3 1013.3 0.0
30/07:00am 17.3 15.4 11.8 70 3.0 WNW 13 17 7 9 1013.4 1013.4 0.0
30/06:30am 17.0 15.7 12.5 75 2.5 NW 11 17 6 9 1013.3 1013.3 0.0
30/06:00am 17.3 17.0 13.2 77 2.3 N 7 9 4 5 1013.0 1013.0 0.0
30/05:30am 17.2 16.9 13.3 78 2.2 N 7 9 4 5 1012.7 1012.7 0.0
30/05:00am 16.9 16.7 13.5 80 1.9 NNW 7 9 4 5 1012.6 1012.6 0.0
30/04:30am 16.6 15.8 14.0 84 1.5 NW 11 11 6 6 1012.6 1012.6 0.0
30/04:00am 17.1 16.7 14.1 82 1.7 NNW 9 11 5 6 1012.6 1012.6 0.0
30/03:30am 16.1 16.7 14.2 88 1.1 N 4 7 2 4 1012.8 1012.8 0.0
30/03:00am 16.0 16.2 14.1 88 1.1 NNE 6 7 3 4 1013.0 1013.0 0.0
30/02:30am 16.3 17.8 14.6 90 1.0 CALM 0 0 0 0 1013.3 1013.3 0.0
30/02:00am 16.3 17.1 14.7 90 0.9 S 4 6 2 3 1013.4 1013.4 0.0
30/01:30am 16.6 17.1 14.9 90 1.0 S 6 7 3 4 1013.7 1013.7 0.0
30/01:00am 16.9 17.4 15.0 88 1.1 S 6 6 3 3 1013.9 1013.9 0.0
30/12:30am 17.1 17.3 14.8 86 1.3 S 7 9 4 5 1014.3 1014.3 0.0
30/12:00am 17.1 18.0 15.2 88 1.1 SSE 4 7 2 4 1014.6 1014.6 0.0
 
Date/Time
EST
Tmp

°C
App
Tmp
°C
Dew
Point
°C
Rel
Hum
%
Delta-T

°C
Wind Press
QNH
hPa
Press
MSL
hPa
Rain
since
9 am
mm
Dir
 
Spd
km/h
Gust
km/h
Spd
kts
Gust
kts
29/11:30pm 17.4 19.0 14.8 85 1.5 CALM 0 4 0 2 1014.7 1014.7 0.0
29/11:00pm 17.6 17.8 14.8 84 1.6 E 7 9 4 5 1015.0 1015.0 0.0
29/10:30pm 18.0 16.7 14.7 81 1.9 S 15 17 8 9 1014.9 1014.9 0.0
29/10:00pm 18.4 16.4 14.0 75 2.5 S 17 17 9 9 1015.0 1015.0 0.0
29/09:30pm 18.4 16.6 14.4 77 2.3 S 17 22 9 12 1015.0 1015.0 0.0
29/09:00pm 18.7 17.0 14.7 77 2.3 S 17 22 9 12 1014.9 1014.9 0.0
29/08:30pm 18.9 16.8 14.8 77 2.4 S 19 24 10 13 1014.8 1014.8 0.0
29/08:00pm 19.2 17.9 14.9 76 2.5 SSW 15 20 8 11 1014.7 1014.7 0.0
29/07:30pm 19.6 16.5 15.5 77 2.4 S 26 32 14 17 1014.5 1014.5 0.0
29/07:00pm 20.4 16.2 15.7 74 2.8 S 32 37 17 20 1013.7 1013.7 0.0
29/06:43pm 23.9 19.5 13.0 50 6.3 S 28 41 15 22 1013.4 1013.4 0.0
29/06:30pm 29.1 25.0 4.2 20 12.7 WNW 15 19 8 10 1012.7 1012.7 0.0
29/06:00pm 30.2 25.0 3.4 18 13.6 WNW 20 28 11 15 1012.3 1012.3 0.0
29/05:30pm 30.5 25.3 2.2 16 14.1 NW 19 28 10 15 1011.8 1011.8 0.0
29/05:00pm 31.2 25.1 0.6 14 14.9 WNW 22 32 12 17 1011.4 1011.4 0.0
29/04:30pm 31.9 25.0 0.2 13 15.4 WNW 26 33 14 18 1011.0 1011.0 0.0
29/04:00pm 32.5 27.4 0.9 13 15.6 NW 17 30 9 16 1010.8 1010.8 0.0
29/03:30pm 32.0 25.5 0.0 13 15.5 NNW 24 32 13 17 1010.6 1010.6 0.0
29/03:00pm 32.1 26.5 1.2 14 15.3 NW 20 33 11 18 1010.7 1010.7 0.0
29/02:30pm 32.6 26.4 2.0 14 15.4 NW 24 33 13 18 1010.8 1010.8 0.0
29/02:00pm 32.6 26.7 2.0 14 15.4 W 22 33 12 18 1011.3 1011.3 0.0
29/01:30pm 31.4 26.6 0.2 13 15.1 NW 15 30 8 16 1011.6 1011.6 0.0
29/01:00pm 31.7 27.3 0.5 13 15.2 NW 13 19 7 10 1011.9 1011.9 0.0
29/12:30pm 30.8 25.7 2.8 17 14.1 NW 19 28 10 15 1012.5 1012.5 0.0
29/12:00pm 30.3 25.4 3.9 18 13.5 WNW 19 28 10 15 1012.9 1012.9 0.0
29/11:30am 29.5 24.8 3.3 18 13.2 WNW 17 26 9 14 1013.3 1013.3 0.0
29/11:00am 28.9 24.8 2.4 18 13.1 WNW 13 19 7 10 1013.6 1013.6 0.0
29/10:30am 28.5 24.2 3.0 19 12.7 N 15 24 8 13 1013.8 1013.8 0.0
29/10:00am 26.9 22.8 4.6 24 11.3 NNE 15 24 8 13 1014.2 1014.2 0.0

Latest Capital City Observations: Canberra | Sydney | Melbourne | Brisbane | Adelaide | Perth | Hobart | Darwin

Other Formats:

Comma delimited format used in spreadsheet applications
http://www.bom.gov.au/fwo/IDN60901/IDN60901.94767.axf

JavaScript Object Notation format (JSON) in row-major order
http://www.bom.gov.au/fwo/IDN60901/IDN60901.94767.json